sensor_id;sensor_type;location;lat;lon;timestamp;temperature;humidity
60909;DHT22;46780;48.128;-1.704;2023-06-26T00:01:42;20.30;79.20
60909;DHT22;46780;48.128;-1.704;2023-06-26T00:04:08;20.20;79.40
60909;DHT22;46780;48.128;-1.704;2023-06-26T00:06:36;20.20;79.60
60909;DHT22;46780;48.128;-1.704;2023-06-26T00:09:03;20.20;80.00
60909;DHT22;46780;48.128;-1.704;2023-06-26T00:11:31;20.10;80.20
60909;DHT22;46780;48.128;-1.704;2023-06-26T00:13:57;20.10;80.50
60909;DHT22;46780;48.128;-1.704;2023-06-26T00:16:24;20.10;80.60
60909;DHT22;46780;48.128;-1.704;2023-06-26T00:18:50;20.10;80.50
60909;DHT22;46780;48.128;-1.704;2023-06-26T00:21:17;20.00;80.60
60909;DHT22;46780;48.128;-1.704;2023-06-26T00:23:43;20.00;80.80
60909;DHT22;46780;48.128;-1.704;2023-06-26T00:26:10;20.00;80.60
60909;DHT22;46780;48.128;-1.704;2023-06-26T00:28:38;20.00;80.80
60909;DHT22;46780;48.128;-1.704;2023-06-26T00:31:05;20.00;80.70
60909;DHT22;46780;48.128;-1.704;2023-06-26T00:33:31;20.00;80.60
60909;DHT22;46780;48.128;-1.704;2023-06-26T00:35:58;20.00;80.60
60909;DHT22;46780;48.128;-1.704;2023-06-26T00:38:25;20.00;80.80
60909;DHT22;46780;48.128;-1.704;2023-06-26T00:40:51;20.00;80.60
60909;DHT22;46780;48.128;-1.704;2023-06-26T00:43:18;20.00;80.80
60909;DHT22;46780;48.128;-1.704;2023-06-26T00:45:46;19.90;81.10
60909;DHT22;46780;48.128;-1.704;2023-06-26T00:48:13;19.80;81.50
60909;DHT22;46780;48.128;-1.704;2023-06-26T00:50:40;19.80;81.80
60909;DHT22;46780;48.128;-1.704;2023-06-26T00:53:08;19.80;81.90
60909;DHT22;46780;48.128;-1.704;2023-06-26T00:55:35;19.80;81.70
60909;DHT22;46780;48.128;-1.704;2023-06-26T00:58:02;19.90;81.70
60909;DHT22;46780;48.128;-1.704;2023-06-26T01:00:29;19.90;81.30
60909;DHT22;46780;48.128;-1.704;2023-06-26T01:02:57;19.90;81.20
60909;DHT22;46780;48.128;-1.704;2023-06-26T01:05:24;20.00;81.10
60909;DHT22;46780;48.128;-1.704;2023-06-26T01:07:56;20.00;80.90
60909;DHT22;46780;48.128;-1.704;2023-06-26T01:10:24;19.90;81.00
60909;DHT22;46780;48.128;-1.704;2023-06-26T01:12:50;19.90;81.40
60909;DHT22;46780;48.128;-1.704;2023-06-26T01:15:17;19.80;81.60
60909;DHT22;46780;48.128;-1.704;2023-06-26T01:17:44;19.80;81.90
60909;DHT22;46780;48.128;-1.704;2023-06-26T01:20:13;19.70;82.10
60909;DHT22;46780;48.128;-1.704;2023-06-26T01:22:47;19.70;82.50
60909;DHT22;46780;48.128;-1.704;2023-06-26T01:25:23;19.60;82.90
60909;DHT22;46780;48.128;-1.704;2023-06-26T01:27:56;19.60;83.50
60909;DHT22;46780;48.128;-1.704;2023-06-26T01:30:24;19.50;83.80
60909;DHT22;46780;48.128;-1.704;2023-06-26T01:32:51;19.50;83.80
60909;DHT22;46780;48.128;-1.704;2023-06-26T01:35:18;19.50;84.10
60909;DHT22;46780;48.128;-1.704;2023-06-26T01:37:45;19.40;84.60
60909;DHT22;46780;48.128;-1.704;2023-06-26T01:40:12;19.40;85.10
60909;DHT22;46780;48.128;-1.704;2023-06-26T01:42:39;19.30;85.80
60909;DHT22;46780;48.128;-1.704;2023-06-26T01:45:12;19.20;86.30
60909;DHT22;46780;48.128;-1.704;2023-06-26T01:47:44;19.10;86.60
60909;DHT22;46780;48.128;-1.704;2023-06-26T01:50:17;19.10;87.30
60909;DHT22;46780;48.128;-1.704;2023-06-26T01:52:52;19.00;87.70
60909;DHT22;46780;48.128;-1.704;2023-06-26T01:55:24;18.90;88.60
60909;DHT22;46780;48.128;-1.704;2023-06-26T01:57:55;18.90;89.00
60909;DHT22;46780;48.128;-1.704;2023-06-26T02:00:24;18.80;89.50
60909;DHT22;46780;48.128;-1.704;2023-06-26T02:02:52;18.70;90.00
60909;DHT22;46780;48.128;-1.704;2023-06-26T02:05:18;18.70;90.10
60909;DHT22;46780;48.128;-1.704;2023-06-26T02:07:45;18.70;90.20
60909;DHT22;46780;48.128;-1.704;2023-06-26T02:10:12;18.70;90.30
60909;DHT22;46780;48.128;-1.704;2023-06-26T02:12:39;18.60;90.50
60909;DHT22;46780;48.128;-1.704;2023-06-26T02:15:06;18.60;90.60
60909;DHT22;46780;48.128;-1.704;2023-06-26T02:17:35;18.60;90.80
60909;DHT22;46780;48.128;-1.704;2023-06-26T02:20:01;18.50;90.90
60909;DHT22;46780;48.128;-1.704;2023-06-26T02:22:28;18.50;91.10
60909;DHT22;46780;48.128;-1.704;2023-06-26T02:24:54;18.50;91.20
60909;DHT22;46780;48.128;-1.704;2023-06-26T02:27:21;18.40;91.40
60909;DHT22;46780;48.128;-1.704;2023-06-26T02:29:47;18.40;91.50
60909;DHT22;46780;48.128;-1.704;2023-06-26T02:32:14;18.30;91.70
60909;DHT22;46780;48.128;-1.704;2023-06-26T02:34:42;18.30;91.90
60909;DHT22;46780;48.128;-1.704;2023-06-26T02:37:09;18.30;92.00
60909;DHT22;46780;48.128;-1.704;2023-06-26T02:39:35;18.20;92.10
60909;DHT22;46780;48.128;-1.704;2023-06-26T02:42:02;18.10;92.20
60909;DHT22;46780;48.128;-1.704;2023-06-26T02:44:29;18.20;92.30
60909;DHT22;46780;48.128;-1.704;2023-06-26T02:46:55;18.20;92.10
60909;DHT22;46780;48.128;-1.704;2023-06-26T02:49:22;18.30;91.90
60909;DHT22;46780;48.128;-1.704;2023-06-26T02:51:50;18.30;91.90
60909;DHT22;46780;48.128;-1.704;2023-06-26T02:54:16;18.30;91.80
60909;DHT22;46780;48.128;-1.704;2023-06-26T02:56:43;18.20;91.80
60909;DHT22;46780;48.128;-1.704;2023-06-26T02:59:10;18.20;91.90
60909;DHT22;46780;48.128;-1.704;2023-06-26T03:01:36;18.20;92.00
60909;DHT22;46780;48.128;-1.704;2023-06-26T03:04:03;18.10;92.20
60909;DHT22;46780;48.128;-1.704;2023-06-26T03:06:31;18.00;92.40
60909;DHT22;46780;48.128;-1.704;2023-06-26T03:08:59;18.00;92.50
60909;DHT22;46780;48.128;-1.704;2023-06-26T03:11:26;18.00;92.70
60909;DHT22;46780;48.128;-1.704;2023-06-26T03:13:52;17.90;93.00
60909;DHT22;46780;48.128;-1.704;2023-06-26T03:16:19;17.80;93.10
60909;DHT22;46780;48.128;-1.704;2023-06-26T03:18:45;17.90;93.10
60909;DHT22;46780;48.128;-1.704;2023-06-26T03:21:12;17.90;93.00
60909;DHT22;46780;48.128;-1.704;2023-06-26T03:23:38;17.90;93.00
60909;DHT22;46780;48.128;-1.704;2023-06-26T03:26:08;17.90;92.90
60909;DHT22;46780;48.128;-1.704;2023-06-26T03:28:34;17.90;92.80
60909;DHT22;46780;48.128;-1.704;2023-06-26T03:31:01;18.00;92.70
60909;DHT22;46780;48.128;-1.704;2023-06-26T03:33:27;18.00;92.70
60909;DHT22;46780;48.128;-1.704;2023-06-26T03:35:54;18.00;92.60
60909;DHT22;46780;48.128;-1.704;2023-06-26T03:38:22;18.10;92.50
60909;DHT22;46780;48.128;-1.704;2023-06-26T03:40:49;18.10;92.30
60909;DHT22;46780;48.128;-1.704;2023-06-26T03:43:17;18.10;92.20
60909;DHT22;46780;48.128;-1.704;2023-06-26T03:45:43;18.00;92.20
60909;DHT22;46780;48.128;-1.704;2023-06-26T03:48:10;18.00;92.40
60909;DHT22;46780;48.128;-1.704;2023-06-26T03:50:36;18.00;92.40
60909;DHT22;46780;48.128;-1.704;2023-06-26T03:53:03;18.10;92.30
60909;DHT22;46780;48.128;-1.704;2023-06-26T03:55:29;18.10;92.20
60909;DHT22;46780;48.128;-1.704;2023-06-26T03:57:56;18.10;92.20
60909;DHT22;46780;48.128;-1.704;2023-06-26T04:00:24;18.10;92.10
60909;DHT22;46780;48.128;-1.704;2023-06-26T04:02:50;18.10;92.00
60909;DHT22;46780;48.128;-1.704;2023-06-26T04:05:17;18.20;91.80
60909;DHT22;46780;48.128;-1.704;2023-06-26T04:07:44;18.20;91.80
60909;DHT22;46780;48.128;-1.704;2023-06-26T04:10:11;18.20;91.80
60909;DHT22;46780;48.128;-1.704;2023-06-26T04:12:38;18.10;91.70
60909;DHT22;46780;48.128;-1.704;2023-06-26T04:15:05;18.10;91.70
60909;DHT22;46780;48.128;-1.704;2023-06-26T04:17:33;18.10;91.70
60909;DHT22;46780;48.128;-1.704;2023-06-26T04:20:00;18.00;91.80
60909;DHT22;46780;48.128;-1.704;2023-06-26T04:22:26;17.90;92.00
60909;DHT22;46780;48.128;-1.704;2023-06-26T04:24:53;17.90;92.20
60909;DHT22;46780;48.128;-1.704;2023-06-26T04:27:19;17.90;92.20
60909;DHT22;46780;48.128;-1.704;2023-06-26T04:29:46;18.00;92.10
60909;DHT22;46780;48.128;-1.704;2023-06-26T04:32:12;18.00;92.10
60909;DHT22;46780;48.128;-1.704;2023-06-26T04:34:40;18.00;92.00
60909;DHT22;46780;48.128;-1.704;2023-06-26T04:37:07;18.00;91.90
60909;DHT22;46780;48.128;-1.704;2023-06-26T04:39:33;18.10;91.80
60909;DHT22;46780;48.128;-1.704;2023-06-26T04:42:00;18.10;91.80
60909;DHT22;46780;48.128;-1.704;2023-06-26T04:44:26;18.10;91.70
60909;DHT22;46780;48.128;-1.704;2023-06-26T04:46:53;18.10;91.60
60909;DHT22;46780;48.128;-1.704;2023-06-26T04:49:20;18.10;91.50
60909;DHT22;46780;48.128;-1.704;2023-06-26T04:51:47;18.10;91.50
60909;DHT22;46780;48.128;-1.704;2023-06-26T04:54:14;18.10;91.50
60909;DHT22;46780;48.128;-1.704;2023-06-26T04:56:40;18.20;91.50
60909;DHT22;46780;48.128;-1.704;2023-06-26T04:59:07;18.20;91.50
60909;DHT22;46780;48.128;-1.704;2023-06-26T05:01:34;18.20;91.40
60909;DHT22;46780;48.128;-1.704;2023-06-26T05:04:00;18.20;91.40
60909;DHT22;46780;48.128;-1.704;2023-06-26T05:06:27;18.20;91.80
60909;DHT22;46780;48.128;-1.704;2023-06-26T05:08:55;18.30;91.00
60909;DHT22;46780;48.128;-1.704;2023-06-26T05:11:22;18.40;90.90
60909;DHT22;46780;48.128;-1.704;2023-06-26T05:13:48;18.40;90.70
60909;DHT22;46780;48.128;-1.704;2023-06-26T05:16:15;18.50;90.60
60909;DHT22;46780;48.128;-1.704;2023-06-26T05:18:41;18.40;90.50
60909;DHT22;46780;48.128;-1.704;2023-06-26T05:21:08;18.40;90.70
60909;DHT22;46780;48.128;-1.704;2023-06-26T05:23:35;18.40;90.80
60909;DHT22;46780;48.128;-1.704;2023-06-26T05:26:04;18.50;90.90
60909;DHT22;46780;48.128;-1.704;2023-06-26T05:28:31;18.50;90.80
60909;DHT22;46780;48.128;-1.704;2023-06-26T05:30:58;18.50;90.70
60909;DHT22;46780;48.128;-1.704;2023-06-26T05:33:25;18.50;90.80
60909;DHT22;46780;48.128;-1.704;2023-06-26T05:35:53;18.50;91.00
60909;DHT22;46780;48.128;-1.704;2023-06-26T05:38:20;18.50;91.00
60909;DHT22;46780;48.128;-1.704;2023-06-26T05:40:48;18.50;91.10
60909;DHT22;46780;48.128;-1.704;2023-06-26T05:43:16;18.60;91.00
60909;DHT22;46780;48.128;-1.704;2023-06-26T05:45:43;18.60;91.00
60909;DHT22;46780;48.128;-1.704;2023-06-26T05:48:10;18.60;91.10
60909;DHT22;46780;48.128;-1.704;2023-06-26T05:50:37;18.60;91.10
60909;DHT22;46780;48.128;-1.704;2023-06-26T05:53:04;18.60;91.20
60909;DHT22;46780;48.128;-1.704;2023-06-26T05:55:33;18.60;91.20
60909;DHT22;46780;48.128;-1.704;2023-06-26T05:57:59;18.70;91.20
60909;DHT22;46780;48.128;-1.704;2023-06-26T06:00:30;18.70;91.10
60909;DHT22;46780;48.128;-1.704;2023-06-26T06:02:56;18.80;91.00
60909;DHT22;46780;48.128;-1.704;2023-06-26T06:05:26;18.80;91.10
60909;DHT22;46780;48.128;-1.704;2023-06-26T06:07:54;18.80;91.10
60909;DHT22;46780;48.128;-1.704;2023-06-26T06:10:21;18.90;91.00
60909;DHT22;46780;48.128;-1.704;2023-06-26T06:12:47;19.00;90.80
60909;DHT22;46780;48.128;-1.704;2023-06-26T06:19:01;19.20;90.20
60909;DHT22;46780;48.128;-1.704;2023-06-26T06:41:07;19.20;90.00
60909;DHT22;46780;48.128;-1.704;2023-06-26T06:43:03;19.20;89.80
60909;DHT22;46780;48.128;-1.704;2023-06-26T06:45:53;19.20;89.60
60909;DHT22;46780;48.128;-1.704;2023-06-26T06:49:42;19.30;89.30
60909;DHT22;46780;48.128;-1.704;2023-06-26T06:51:50;19.30;89.40
60909;DHT22;46780;48.128;-1.704;2023-06-26T06:54:20;19.30;89.20
60909;DHT22;46780;48.128;-1.704;2023-06-26T06:56:48;19.30;89.50
60909;DHT22;46780;48.128;-1.704;2023-06-26T06:59:14;19.40;89.30
60909;DHT22;46780;48.128;-1.704;2023-06-26T07:01:41;19.50;88.40
60909;DHT22;46780;48.128;-1.704;2023-06-26T07:04:08;19.60;87.50
60909;DHT22;46780;48.128;-1.704;2023-06-26T07:06:34;19.70;86.50
60909;DHT22;46780;48.128;-1.704;2023-06-26T07:09:01;19.70;85.40
60909;DHT22;46780;48.128;-1.704;2023-06-26T07:11:28;19.80;84.50
60909;DHT22;46780;48.128;-1.704;2023-06-26T07:13:56;19.90;83.90
60909;DHT22;46780;48.128;-1.704;2023-06-26T07:16:22;19.90;83.60
60909;DHT22;46780;48.128;-1.704;2023-06-26T07:18:49;19.90;83.20
60909;DHT22;46780;48.128;-1.704;2023-06-26T07:21:17;20.00;82.80
60909;DHT22;46780;48.128;-1.704;2023-06-26T07:23:46;20.20;81.80
60909;DHT22;46780;48.128;-1.704;2023-06-26T07:26:14;20.20;80.50
60909;DHT22;46780;48.128;-1.704;2023-06-26T07:28:47;20.40;79.90
60909;DHT22;46780;48.128;-1.704;2023-06-26T07:31:21;20.50;79.10
60909;DHT22;46780;48.128;-1.704;2023-06-26T07:33:48;20.50;78.40
60909;DHT22;46780;48.128;-1.704;2023-06-26T07:36:15;20.50;78.20
60909;DHT22;46780;48.128;-1.704;2023-06-26T07:38:43;20.60;77.40
60909;DHT22;46780;48.128;-1.704;2023-06-26T07:41:11;20.70;76.60
60909;DHT22;46780;48.128;-1.704;2023-06-26T07:43:37;20.70;74.70
60909;DHT22;46780;48.128;-1.704;2023-06-26T07:46:04;20.80;73.70
60909;DHT22;46780;48.128;-1.704;2023-06-26T07:48:32;20.90;73.00
60909;DHT22;46780;48.128;-1.704;2023-06-26T07:50:58;20.90;72.80
60909;DHT22;46780;48.128;-1.704;2023-06-26T07:53:25;21.00;72.20
60909;DHT22;46780;48.128;-1.704;2023-06-26T07:55:51;21.00;71.20
60909;DHT22;46780;48.128;-1.704;2023-06-26T07:58:18;21.20;70.40
60909;DHT22;46780;48.128;-1.704;2023-06-26T08:01:06;21.30;69.70
60909;DHT22;46780;48.128;-1.704;2023-06-26T08:03:34;21.40;67.50
60909;DHT22;46780;48.128;-1.704;2023-06-26T08:06:00;21.40;67.40
60909;DHT22;46780;48.128;-1.704;2023-06-26T08:11:54;21.60;64.80
60909;DHT22;46780;48.128;-1.704;2023-06-26T08:14:55;21.70;63.60
60909;DHT22;46780;48.128;-1.704;2023-06-26T08:17:40;21.60;62.50
60909;DHT22;46780;48.128;-1.704;2023-06-26T08:20:09;21.60;63.30
60909;DHT22;46780;48.128;-1.704;2023-06-26T08:22:35;21.70;63.10
60909;DHT22;46780;48.128;-1.704;2023-06-26T08:25:03;21.80;62.70
60909;DHT22;46780;48.128;-1.704;2023-06-26T08:27:32;21.90;62.10
60909;DHT22;46780;48.128;-1.704;2023-06-26T08:30:01;22.00;61.50
60909;DHT22;46780;48.128;-1.704;2023-06-26T08:32:29;22.00;61.10
60909;DHT22;46780;48.128;-1.704;2023-06-26T08:34:58;22.10;59.80
60909;DHT22;46780;48.128;-1.704;2023-06-26T08:37:26;22.20;60.10
60909;DHT22;46780;48.128;-1.704;2023-06-26T08:39:54;22.30;59.90
60909;DHT22;46780;48.128;-1.704;2023-06-26T08:42:20;22.30;58.80
60909;DHT22;46780;48.128;-1.704;2023-06-26T08:44:48;22.40;59.40
60909;DHT22;46780;48.128;-1.704;2023-06-26T08:47:18;22.50;57.70
60909;DHT22;46780;48.128;-1.704;2023-06-26T08:49:51;22.70;55.90
60909;DHT22;46780;48.128;-1.704;2023-06-26T08:52:23;22.90;54.20
60909;DHT22;46780;48.128;-1.704;2023-06-26T09:02:00;23.00;51.00
60909;DHT22;46780;48.128;-1.704;2023-06-26T09:04:58;23.00;51.20
60909;DHT22;46780;48.128;-1.704;2023-06-26T09:07:27;23.20;50.60
60909;DHT22;46780;48.128;-1.704;2023-06-26T09:09:54;23.40;50.50
60909;DHT22;46780;48.128;-1.704;2023-06-26T09:12:21;23.60;49.30
60909;DHT22;46780;48.128;-1.704;2023-06-26T09:14:47;23.50;48.70
60909;DHT22;46780;48.128;-1.704;2023-06-26T09:17:20;23.60;48.70
60909;DHT22;46780;48.128;-1.704;2023-06-26T09:23:31;23.80;47.70
60909;DHT22;46780;48.128;-1.704;2023-06-26T09:25:58;23.90;47.40
60909;DHT22;46780;48.128;-1.704;2023-06-26T09:28:26;24.00;46.20
60909;DHT22;46780;48.128;-1.704;2023-06-26T09:31:03;24.10;45.90
60909;DHT22;46780;48.128;-1.704;2023-06-26T09:33:33;24.30;44.60
60909;DHT22;46780;48.128;-1.704;2023-06-26T09:36:05;24.30;43.90
60909;DHT22;46780;48.128;-1.704;2023-06-26T09:41:11;24.30;43.70
60909;DHT22;46780;48.128;-1.704;2023-06-26T09:43:45;24.30;42.90
60909;DHT22;46780;48.128;-1.704;2023-06-26T09:46:15;24.40;42.20
60909;DHT22;46780;48.128;-1.704;2023-06-26T09:48:58;24.50;41.00
60909;DHT22;46780;48.128;-1.704;2023-06-26T09:51:25;24.60;41.30
60909;DHT22;46780;48.128;-1.704;2023-06-26T09:55:00;24.80;40.80
60909;DHT22;46780;48.128;-1.704;2023-06-26T09:58:39;25.00;40.40
60909;DHT22;46780;48.128;-1.704;2023-06-26T10:00:48;25.10;40.20
60909;DHT22;46780;48.128;-1.704;2023-06-26T10:03:18;25.30;40.00
60909;DHT22;46780;48.128;-1.704;2023-06-26T10:06:10;25.40;40.10
60909;DHT22;46780;48.128;-1.704;2023-06-26T10:09:09;25.50;40.60
60909;DHT22;46780;48.128;-1.704;2023-06-26T10:12:07;25.60;40.00
60909;DHT22;46780;48.128;-1.704;2023-06-26T10:14:48;25.70;39.70
60909;DHT22;46780;48.128;-1.704;2023-06-26T10:18:55;26.00;38.50
60909;DHT22;46780;48.128;-1.704;2023-06-26T10:21:16;26.50;38.10
60909;DHT22;46780;48.128;-1.704;2023-06-26T10:24:28;26.90;36.70
60909;DHT22;46780;48.128;-1.704;2023-06-26T10:27:14;27.00;34.80
60909;DHT22;46780;48.128;-1.704;2023-06-26T10:30:13;26.90;34.40
60909;DHT22;46780;48.128;-1.704;2023-06-26T10:32:45;26.80;33.60
60909;DHT22;46780;48.128;-1.704;2023-06-26T11:11:56;26.50;36.20
60909;DHT22;46780;48.128;-1.704;2023-06-26T11:15:21;26.80;34.90
60909;DHT22;46780;48.128;-1.704;2023-06-26T11:17:59;26.60;34.60
60909;DHT22;46780;48.128;-1.704;2023-06-26T11:20:40;26.80;34.50
60909;DHT22;46780;48.128;-1.704;2023-06-26T11:36:23;26.90;34.60
60909;DHT22;46780;48.128;-1.704;2023-06-26T11:42:54;27.00;34.70
60909;DHT22;46780;48.128;-1.704;2023-06-26T11:45:42;27.30;34.70
60909;DHT22;46780;48.128;-1.704;2023-06-26T11:49:16;27.40;33.70
60909;DHT22;46780;48.128;-1.704;2023-06-26T11:52:11;27.40;32.90
60909;DHT22;46780;48.128;-1.704;2023-06-26T11:58:00;27.10;32.60
60909;DHT22;46780;48.128;-1.704;2023-06-26T12:07:55;27.70;32.90
60909;DHT22;46780;48.128;-1.704;2023-06-26T12:10:45;28.00;31.40
60909;DHT22;46780;48.128;-1.704;2023-06-26T12:13:33;28.30;30.90
60909;DHT22;46780;48.128;-1.704;2023-06-26T12:16:17;28.40;30.40
60909;DHT22;46780;48.128;-1.704;2023-06-26T12:25:38;28.00;29.60
60909;DHT22;46780;48.128;-1.704;2023-06-26T12:28:15;28.10;29.60
60909;DHT22;46780;48.128;-1.704;2023-06-26T12:30:46;27.90;28.60
60909;DHT22;46780;48.128;-1.704;2023-06-26T12:33:28;27.70;28.30
60909;DHT22;46780;48.128;-1.704;2023-06-26T12:36:12;27.80;28.80
60909;DHT22;46780;48.128;-1.704;2023-06-26T12:38:46;28.10;29.10
60909;DHT22;46780;48.128;-1.704;2023-06-26T12:41:23;28.10;28.80
60909;DHT22;46780;48.128;-1.704;2023-06-26T12:44:22;28.00;29.30
60909;DHT22;46780;48.128;-1.704;2023-06-26T12:46:58;28.00;29.00
60909;DHT22;46780;48.128;-1.704;2023-06-26T12:51:00;27.90;28.90
60909;DHT22;46780;48.128;-1.704;2023-06-26T12:56:43;27.70;28.50
60909;DHT22;46780;48.128;-1.704;2023-06-26T12:59:17;27.80;28.90
60909;DHT22;46780;48.128;-1.704;2023-06-26T13:02:16;27.70;29.10
60909;DHT22;46780;48.128;-1.704;2023-06-26T13:04:58;27.70;29.10
60909;DHT22;46780;48.128;-1.704;2023-06-26T13:08:12;27.90;29.00
60909;DHT22;46780;48.128;-1.704;2023-06-26T13:14:37;28.20;28.50
60909;DHT22;46780;48.128;-1.704;2023-06-26T13:17:04;28.30;28.40
60909;DHT22;46780;48.128;-1.704;2023-06-26T13:19:30;28.30;28.10
60909;DHT22;46780;48.128;-1.704;2023-06-26T13:21:57;28.40;28.10
60909;DHT22;46780;48.128;-1.704;2023-06-26T13:24:26;28.30;27.80
60909;DHT22;46780;48.128;-1.704;2023-06-26T13:26:53;28.30;28.10
60909;DHT22;46780;48.128;-1.704;2023-06-26T13:29:20;28.30;28.40
60909;DHT22;46780;48.128;-1.704;2023-06-26T13:31:48;28.30;28.40
60909;DHT22;46780;48.128;-1.704;2023-06-26T13:34:30;28.40;28.40
60909;DHT22;46780;48.128;-1.704;2023-06-26T13:36:58;28.50;28.30
60909;DHT22;46780;48.128;-1.704;2023-06-26T13:39:45;28.60;28.00
60909;DHT22;46780;48.128;-1.704;2023-06-26T13:44:19;28.70;27.70
60909;DHT22;46780;48.128;-1.704;2023-06-26T13:45:21;28.60;28.20
60909;DHT22;46780;48.128;-1.704;2023-06-26T13:48:00;28.70;28.40
60909;DHT22;46780;48.128;-1.704;2023-06-26T13:50:30;28.70;27.40
60909;DHT22;46780;48.128;-1.704;2023-06-26T13:52:57;28.60;27.40
60909;DHT22;46780;48.128;-1.704;2023-06-26T13:55:30;28.50;27.60
60909;DHT22;46780;48.128;-1.704;2023-06-26T13:58:01;28.50;28.10
60909;DHT22;46780;48.128;-1.704;2023-06-26T14:00:31;28.50;27.80
60909;DHT22;46780;48.128;-1.704;2023-06-26T14:03:17;28.60;27.90
60909;DHT22;46780;48.128;-1.704;2023-06-26T14:05:49;28.60;28.30
60909;DHT22;46780;48.128;-1.704;2023-06-26T14:08:17;28.70;29.20
60909;DHT22;46780;48.128;-1.704;2023-06-26T14:10:47;28.60;28.00
60909;DHT22;46780;48.128;-1.704;2023-06-26T14:13:39;28.60;28.50
60909;DHT22;46780;48.128;-1.704;2023-06-26T14:16:12;28.70;28.40
60909;DHT22;46780;48.128;-1.704;2023-06-26T14:18:50;28.70;28.40
60909;DHT22;46780;48.128;-1.704;2023-06-26T14:21:22;28.70;28.30
60909;DHT22;46780;48.128;-1.704;2023-06-26T14:24:04;28.50;28.60
60909;DHT22;46780;48.128;-1.704;2023-06-26T14:26:49;28.50;29.20
60909;DHT22;46780;48.128;-1.704;2023-06-26T14:29:45;28.50;29.20
60909;DHT22;46780;48.128;-1.704;2023-06-26T14:32:18;28.30;29.50
60909;DHT22;46780;48.128;-1.704;2023-06-26T14:35:03;28.30;29.70
60909;DHT22;46780;48.128;-1.704;2023-06-26T14:37:54;28.30;29.70
60909;DHT22;46780;48.128;-1.704;2023-06-26T14:40:29;28.40;29.70
60909;DHT22;46780;48.128;-1.704;2023-06-26T14:42:59;28.20;29.40
60909;DHT22;46780;48.128;-1.704;2023-06-26T14:45:32;27.90;29.60
60909;DHT22;46780;48.128;-1.704;2023-06-26T14:48:03;27.80;30.00
60909;DHT22;46780;48.128;-1.704;2023-06-26T14:50:31;27.70;30.20
60909;DHT22;46780;48.128;-1.704;2023-06-26T14:52:59;27.70;30.60
60909;DHT22;46780;48.128;-1.704;2023-06-26T14:55:28;27.70;30.20
60909;DHT22;46780;48.128;-1.704;2023-06-26T14:57:54;27.60;30.10
60909;DHT22;46780;48.128;-1.704;2023-06-26T15:00:22;27.60;30.80
60909;DHT22;46780;48.128;-1.704;2023-06-26T15:02:48;27.60;31.00
60909;DHT22;46780;48.128;-1.704;2023-06-26T15:05:23;27.70;31.10
60909;DHT22;46780;48.128;-1.704;2023-06-26T15:07:51;27.70;30.40
60909;DHT22;46780;48.128;-1.704;2023-06-26T15:10:18;27.70;30.30
60909;DHT22;46780;48.128;-1.704;2023-06-26T15:12:47;27.60;30.30
60909;DHT22;46780;48.128;-1.704;2023-06-26T15:15:15;27.50;30.60
60909;DHT22;46780;48.128;-1.704;2023-06-26T15:17:43;27.50;30.80
60909;DHT22;46780;48.128;-1.704;2023-06-26T15:20:12;27.50;30.70
60909;DHT22;46780;48.128;-1.704;2023-06-26T15:22:49;27.60;31.00
60909;DHT22;46780;48.128;-1.704;2023-06-26T15:25:19;27.60;31.00
60909;DHT22;46780;48.128;-1.704;2023-06-26T15:27:46;27.50;31.40
60909;DHT22;46780;48.128;-1.704;2023-06-26T15:30:14;27.50;31.80
60909;DHT22;46780;48.128;-1.704;2023-06-26T15:32:41;27.40;32.10
60909;DHT22;46780;48.128;-1.704;2023-06-26T15:35:08;27.30;32.90
60909;DHT22;46780;48.128;-1.704;2023-06-26T15:37:35;27.20;33.00
60909;DHT22;46780;48.128;-1.704;2023-06-26T15:40:01;27.20;33.10
60909;DHT22;46780;48.128;-1.704;2023-06-26T15:42:29;27.20;33.30
60909;DHT22;46780;48.128;-1.704;2023-06-26T15:44:56;27.10;33.40
60909;DHT22;46780;48.128;-1.704;2023-06-26T15:47:23;27.00;33.70
60909;DHT22;46780;48.128;-1.704;2023-06-26T15:49:57;27.00;33.60
60909;DHT22;46780;48.128;-1.704;2023-06-26T15:52:28;26.90;33.80
60909;DHT22;46780;48.128;-1.704;2023-06-26T15:54:54;26.80;34.20
60909;DHT22;46780;48.128;-1.704;2023-06-26T15:57:21;26.80;34.20
60909;DHT22;46780;48.128;-1.704;2023-06-26T15:59:49;26.70;34.40
60909;DHT22;46780;48.128;-1.704;2023-06-26T16:02:16;26.70;34.80
60909;DHT22;46780;48.128;-1.704;2023-06-26T16:04:42;26.70;34.80
60909;DHT22;46780;48.128;-1.704;2023-06-26T16:07:09;26.60;34.80
60909;DHT22;46780;48.128;-1.704;2023-06-26T16:09:38;26.60;35.00
60909;DHT22;46780;48.128;-1.704;2023-06-26T16:12:05;26.40;35.20
60909;DHT22;46780;48.128;-1.704;2023-06-26T16:14:32;26.30;35.50
60909;DHT22;46780;48.128;-1.704;2023-06-26T16:17:00;26.30;35.70
60909;DHT22;46780;48.128;-1.704;2023-06-26T16:19:28;26.20;35.70
60909;DHT22;46780;48.128;-1.704;2023-06-26T16:21:54;26.20;35.60
60909;DHT22;46780;48.128;-1.704;2023-06-26T16:24:22;26.10;36.00
60909;DHT22;46780;48.128;-1.704;2023-06-26T16:26:48;26.10;36.20
60909;DHT22;46780;48.128;-1.704;2023-06-26T16:29:15;26.00;36.10
60909;DHT22;46780;48.128;-1.704;2023-06-26T16:31:48;25.90;36.20
60909;DHT22;46780;48.128;-1.704;2023-06-26T16:34:22;25.90;36.30
60909;DHT22;46780;48.128;-1.704;2023-06-26T16:37:01;25.90;36.50
60909;DHT22;46780;48.128;-1.704;2023-06-26T16:39:44;25.90;36.50
60909;DHT22;46780;48.128;-1.704;2023-06-26T16:42:26;25.90;36.40
60909;DHT22;46780;48.128;-1.704;2023-06-26T16:45:08;25.90;36.00
60909;DHT22;46780;48.128;-1.704;2023-06-26T16:47:45;25.80;36.20
60909;DHT22;46780;48.128;-1.704;2023-06-26T16:50:13;25.80;36.20
60909;DHT22;46780;48.128;-1.704;2023-06-26T16:52:43;25.70;36.20
60909;DHT22;46780;48.128;-1.704;2023-06-26T16:55:10;25.60;36.10
60909;DHT22;46780;48.128;-1.704;2023-06-26T16:57:37;25.50;36.30
60909;DHT22;46780;48.128;-1.704;2023-06-26T17:00:04;25.50;36.30
60909;DHT22;46780;48.128;-1.704;2023-06-26T17:02:31;25.50;36.30
60909;DHT22;46780;48.128;-1.704;2023-06-26T17:04:58;25.40;36.10
60909;DHT22;46780;48.128;-1.704;2023-06-26T17:07:26;25.40;36.00
60909;DHT22;46780;48.128;-1.704;2023-06-26T17:09:53;25.30;36.20
60909;DHT22;46780;48.128;-1.704;2023-06-26T17:12:20;25.20;36.30
60909;DHT22;46780;48.128;-1.704;2023-06-26T17:14:49;25.20;36.40
60909;DHT22;46780;48.128;-1.704;2023-06-26T17:17:16;25.10;36.80
60909;DHT22;46780;48.128;-1.704;2023-06-26T17:19:42;25.10;37.30
60909;DHT22;46780;48.128;-1.704;2023-06-26T17:22:09;25.10;38.90
60909;DHT22;46780;48.128;-1.704;2023-06-26T17:24:37;25.10;37.70
60909;DHT22;46780;48.128;-1.704;2023-06-26T17:27:10;25.10;38.00
60909;DHT22;46780;48.128;-1.704;2023-06-26T17:29:37;25.10;38.00
60909;DHT22;46780;48.128;-1.704;2023-06-26T17:32:05;25.00;38.10
60909;DHT22;46780;48.128;-1.704;2023-06-26T17:34:32;25.00;39.30
60909;DHT22;46780;48.128;-1.704;2023-06-26T17:36:58;25.00;38.70
60909;DHT22;46780;48.128;-1.704;2023-06-26T17:39:25;25.00;39.00
60909;DHT22;46780;48.128;-1.704;2023-06-26T17:41:54;24.90;39.30